Time;durP1;ratioP1;P1;durP2;ratioP2;P2;SDS_P1;SDS_P2;PMS_P1;PMS_P2;Temp;Humidity;BMP_temperature;BMP_pressure;BME280_temperature;BME280_humidity;BME280_pressure;Samples;Min_cycle;Max_cycle;Signal;HPM_P1;HPM_P2
2021/12/03 00:01:40;;;;;;;6.93;4.90;;;-1.70;1.00;196.50;224877.00;;;;4970291;28;20191;-86
2021/12/03 00:04:08;;;;;;;7.13;4.73;;;-1.70;1.00;196.50;224877.00;;;;4954670;29;20202;-85
2021/12/03 00:06:38;;;;;;;7.63;4.90;;;-1.70;1.00;196.50;224877.00;;;;4953324;29;20301;-86
2021/12/03 00:09:09;;;;;;;9.23;4.90;;;-1.60;1.00;196.50;224877.00;;;;4955406;29;20230;-87
2021/12/03 00:11:36;;;;;;;7.53;5.17;;;-1.60;1.00;196.50;224877.00;;;;4956399;29;20202;-86
2021/12/03 00:14:08;;;;;;;7.77;4.97;;;-1.60;1.00;196.50;224877.00;;;;4970493;28;20195;-87
2021/12/03 00:16:37;;;;;;;8.97;4.77;;;-1.70;1.00;196.50;224877.00;;;;4955654;29;20199;-87
2021/12/03 00:19:04;;;;;;;9.30;5.10;;;-1.70;1.00;196.50;224877.00;;;;4970073;28;20215;-85
2021/12/03 00:21:31;;;;;;;8.53;5.10;;;-1.70;1.00;196.50;224877.00;;;;4954446;29;20542;-85
2021/12/03 00:23:58;;;;;;;8.07;5.37;;;-1.80;1.00;196.50;224877.00;;;;4970477;28;20202;-86
2021/12/03 00:26:30;;;;;;;8.27;5.67;;;-1.80;1.00;196.50;224877.00;;;;4955268;29;20195;-85
2021/12/03 00:28:57;;;;;;;10.50;5.20;;;-1.80;1.00;196.50;224877.00;;;;4955305;29;20277;-85
2021/12/03 00:31:26;;;;;;;9.23;5.13;;;-1.90;1.00;196.50;224877.00;;;;4953789;29;20552;-85
2021/12/03 00:34:02;;;;;;;8.73;5.43;;;-1.90;1.00;196.50;224877.00;;;;4969790;28;20190;-85
2021/12/03 00:36:29;;;;;;;11.57;6.10;;;-2.00;1.00;196.50;224877.00;;;;4953896;28;20808;-86
2021/12/03 00:39:00;;;;;;;9.10;5.20;;;-2.00;1.00;196.50;224877.00;;;;4953568;29;20187;-86
2021/12/03 00:41:32;;;;;;;8.87;5.50;;;-2.00;1.00;196.50;224877.00;;;;4954317;29;20666;-85
2021/12/03 00:44:00;;;;;;;10.13;5.73;;;-1.90;1.00;196.50;224877.00;;;;4955126;29;20259;-85
2021/12/03 00:46:29;;;;;;;7.57;5.30;;;-1.90;1.00;196.50;224877.00;;;;4971183;28;20191;-87
2021/12/03 00:48:59;;;;;;;9.57;6.20;;;-1.90;1.00;196.50;224877.00;;;;4954736;29;20722;-85
2021/12/03 00:51:27;;;;;;;10.43;5.60;;;-1.90;1.00;196.50;224877.00;;;;4954760;29;20223;-85
2021/12/03 00:53:55;;;;;;;7.47;5.50;;;-1.90;1.00;196.50;224877.00;;;;4955247;29;20199;-85
2021/12/03 00:56:22;;;;;;;9.17;6.13;;;-2.00;1.00;196.50;224877.00;;;;4956849;29;20265;-86
2021/12/03 00:58:55;;;;;;;8.03;6.13;;;-2.00;1.00;196.50;224877.00;;;;4970740;28;20286;-85
2021/12/03 01:01:24;;;;;;;13.33;6.30;;;-2.00;1.00;196.50;224877.00;;;;4954465;29;20194;-86
2021/12/03 01:03:51;;;;;;;11.00;6.27;;;-2.00;1.00;196.50;224877.00;;;;4954237;29;20742;-88
2021/12/03 01:06:24;;;;;;;8.87;6.23;;;-2.00;1.00;196.50;224877.00;;;;4954957;28;20663;-86
2021/12/03 01:08:51;;;;;;;9.70;6.43;;;-2.00;1.00;196.50;224877.00;;;;4953855;29;20238;-85
2021/12/03 01:11:21;;;;;;;9.30;5.70;;;-1.90;1.00;196.50;224877.00;;;;4969705;28;20205;-85
2021/12/03 01:13:57;;;;;;;9.03;5.93;;;-2.00;1.00;196.50;224877.00;;;;4938208;29;20207;-85
2021/12/03 01:16:24;;;;;;;8.83;5.90;;;-2.00;1.00;196.50;224877.00;;;;4956012;29;20229;-86
2021/12/03 01:18:51;;;;;;;8.33;5.97;;;-1.90;1.00;196.50;224877.00;;;;4969584;28;20531;-86
2021/12/03 01:21:19;;;;;;;8.83;5.43;;;-2.00;1.00;196.50;224877.00;;;;4970212;28;20317;-85
2021/12/03 01:23:56;;;;;;;11.30;6.17;;;-2.00;1.00;196.50;224877.00;;;;4953944;29;20214;-87
2021/12/03 01:26:24;;;;;;;10.83;6.83;;;-2.00;1.00;196.50;224877.00;;;;4953858;29;20199;-85
2021/12/03 01:28:51;;;;;;;9.30;5.87;;;-2.00;1.00;196.50;224877.00;;;;4953844;29;20621;-85
2021/12/03 01:31:21;;;;;;;9.07;6.00;;;-2.00;1.00;196.50;224877.00;;;;4954121;29;20582;-84
2021/12/03 01:33:51;;;;;;;7.43;5.93;;;-2.10;1.00;196.50;224877.00;;;;4953683;28;20671;-86
2021/12/03 01:36:21;;;;;;;8.63;6.07;;;-2.10;1.00;196.50;224877.00;;;;4953735;29;20199;-87
2021/12/03 01:38:48;;;;;;;10.67;5.80;;;-2.10;1.00;196.50;224877.00;;;;4953308;29;20662;-87
2021/12/03 01:41:15;;;;;;;11.33;6.60;;;-2.10;1.00;196.50;224877.00;;;;4953202;29;20317;-85
2021/12/03 01:43:44;;;;;;;9.27;6.37;;;-2.10;1.00;196.50;224877.00;;;;4937713;29;20227;-85
2021/12/03 01:46:13;;;;;;;9.93;6.17;;;-2.10;1.00;196.50;224877.00;;;;4969857;28;20290;-85
2021/12/03 01:48:42;;;;;;;10.70;6.33;;;-2.20;1.00;196.50;224877.00;;;;4955211;28;20195;-86
2021/12/03 01:51:12;;;;;;;9.33;5.93;;;-2.20;1.00;196.50;224877.00;;;;4958503;29;20202;-86
2021/12/03 01:53:43;;;;;;;8.83;6.57;;;-2.20;1.00;196.50;224877.00;;;;4973631;28;20666;-87
2021/12/03 01:56:16;;;;;;;10.07;6.57;;;-2.20;1.00;196.50;224877.00;;;;4972531;28;20250;-85
2021/12/03 01:58:47;;;;;;;8.70;6.60;;;-2.20;1.00;196.50;224877.00;;;;4973130;28;20199;-86
2021/12/03 02:01:26;;;;;;;9.57;6.13;;;-2.10;1.00;196.50;224877.00;;;;4956622;29;20215;-85
2021/12/03 02:04:01;;;;;;;9.97;6.50;;;-2.20;1.00;196.50;224877.00;;;;4957003;29;20222;-87
2021/12/03 02:06:38;;;;;;;12.33;6.80;;;-2.10;1.00;196.50;224877.00;;;;4957836;29;20677;-86
2021/12/03 02:09:06;;;;;;;9.53;6.57;;;-2.10;1.00;196.50;224877.00;;;;4956725;29;20191;-87
2021/12/03 02:11:34;;;;;;;10.63;7.07;;;-2.10;1.00;196.50;224877.00;;;;4956630;29;20253;-87
2021/12/03 02:14:04;;;;;;;9.63;6.37;;;-2.10;1.00;196.50;224877.00;;;;4956374;29;20192;-88
2021/12/03 02:16:37;;;;;;;12.10;6.67;;;-2.10;1.00;196.50;224877.00;;;;4955901;29;20229;-86
2021/12/03 02:19:05;;;;;;;8.97;6.33;;;-2.10;1.00;196.50;224877.00;;;;4973468;28;20685;-84
2021/12/03 02:21:35;;;;;;;9.23;6.43;;;-2.10;1.00;196.50;224877.00;;;;4956665;29;20251;-86
2021/12/03 02:24:03;;;;;;;9.43;6.40;;;-2.10;1.00;196.50;224877.00;;;;4956558;28;20207;-86
2021/12/03 02:26:33;;;;;;;10.17;6.20;;;-2.10;1.00;196.50;224877.00;;;;4956650;29;20209;-86
2021/12/03 02:29:00;;;;;;;10.53;6.53;;;-2.10;1.00;196.50;224877.00;;;;4956111;29;20662;-86
2021/12/03 02:31:28;;;;;;;9.73;6.33;;;-2.20;1.00;196.50;224877.00;;;;4972416;28;20194;-86
2021/12/03 02:33:55;;;;;;;11.83;6.83;;;-2.20;1.00;196.50;224877.00;;;;4972151;28;20558;-84
2021/12/03 02:36:27;;;;;;;13.20;6.10;;;-2.20;1.00;196.50;224877.00;;;;4971797;28;20741;-85
2021/12/03 02:38:56;;;;;;;8.77;6.20;;;-2.20;1.00;196.50;224877.00;;;;4971047;28;20195;-85
2021/12/03 02:41:23;;;;;;;11.63;6.93;;;-2.20;1.00;196.50;224877.00;;;;4939820;29;20223;-84
2021/12/03 02:43:50;;;;;;;11.27;6.33;;;-2.10;1.00;196.50;224877.00;;;;4955992;29;20254;-85
2021/12/03 02:46:17;;;;;;;10.97;6.13;;;-2.10;1.00;196.50;224877.00;;;;4957698;29;20195;-83
2021/12/03 02:48:47;;;;;;;8.47;6.17;;;-2.10;1.00;196.50;224877.00;;;;4956885;29;20199;-83
2021/12/03 02:51:17;;;;;;;7.53;5.60;;;-2.20;1.00;196.50;224877.00;;;;4956355;29;20202;-86
2021/12/03 02:53:46;;;;;;;11.40;6.80;;;-2.20;1.00;196.50;224877.00;;;;4955763;29;20195;-84
2021/12/03 02:56:15;;;;;;;10.70;6.73;;;-2.20;1.00;196.50;224877.00;;;;4957063;29;20295;-85
2021/12/03 02:58:42;;;;;;;10.90;6.60;;;-2.30;1.00;196.50;224877.00;;;;4955539;28;20257;-84
2021/12/03 03:01:16;;;;;;;7.80;6.10;;;-2.40;1.00;196.50;224877.00;;;;4954617;28;20219;-84
2021/12/03 03:03:43;;;;;;;9.00;6.70;;;-2.50;1.00;196.50;224877.00;;;;4971555;28;20775;-86
2021/12/03 03:06:10;;;;;;;9.80;6.53;;;-2.40;1.00;196.50;224877.00;;;;4955791;29;20203;-87
2021/12/03 03:08:42;;;;;;;7.70;5.73;;;-2.50;1.00;196.50;224877.00;;;;4971051;28;20198;-86
2021/12/03 03:11:10;;;;;;;8.70;6.47;;;-2.40;1.00;196.50;224877.00;;;;4955209;28;20265;-85
2021/12/03 03:13:38;;;;;;;8.37;6.37;;;-2.50;1.00;196.50;224877.00;;;;4955282;29;20206;-85
2021/12/03 03:16:09;;;;;;;7.87;5.37;;;-2.60;1.00;196.50;224877.00;;;;4955729;29;20233;-85
2021/12/03 03:18:42;;;;;;;7.80;5.90;;;-2.60;1.00;196.50;224877.00;;;;4955781;29;20297;-85
2021/12/03 03:21:11;;;;;;;8.03;5.40;;;-2.70;1.00;196.50;224877.00;;;;4955149;29;20210;-85
2021/12/03 03:23:40;;;;;;;9.03;5.77;;;-2.70;1.00;196.50;224877.00;;;;4955419;28;20563;-85
2021/12/03 03:26:11;;;;;;;9.53;6.10;;;-2.80;1.00;196.50;224877.00;;;;4955761;29;20704;-84
2021/12/03 03:28:40;;;;;;;8.67;6.40;;;-2.80;1.00;196.50;224877.00;;;;4940068;29;20600;-84
2021/12/03 03:31:12;;;;;;;9.27;5.87;;;-2.80;1.00;196.50;224877.00;;;;4940354;29;20666;-83
2021/12/03 03:33:39;;;;;;;9.33;6.50;;;-2.90;1.00;196.50;224877.00;;;;4955276;29;20207;-84
2021/12/03 03:36:12;;;;;;;8.77;6.23;;;-2.90;1.00;196.50;224877.00;;;;4955711;28;20334;-84
2021/12/03 03:38:45;;;;;;;12.90;6.70;;;-2.80;1.00;196.50;224877.00;;;;4965385;29;20206;-84
2021/12/03 03:41:14;;;;;;;9.43;6.33;;;-2.80;1.00;196.50;224877.00;;;;4973794;28;20229;-83
2021/12/03 03:43:44;;;;;;;8.97;6.40;;;-2.80;1.00;196.50;224877.00;;;;4955509;29;20203;-85
2021/12/03 03:46:11;;;;;;;8.50;6.27;;;-2.90;1.00;196.50;224877.00;;;;4940323;29;20669;-84
2021/12/03 03:48:40;;;;;;;11.23;6.50;;;-2.90;1.00;196.50;224877.00;;;;4971210;28;20558;-84
2021/12/03 03:51:10;;;;;;;9.37;6.20;;;-2.90;1.00;196.50;224877.00;;;;4954905;29;20198;-85
2021/12/03 03:53:39;;;;;;;9.47;5.97;;;-2.90;1.00;196.50;224877.00;;;;4940999;29;20530;-84
2021/12/03 03:56:08;;;;;;;13.00;6.50;;;-2.90;1.00;196.50;224877.00;;;;4955345;29;20214;-84
2021/12/03 03:58:38;;;;;;;13.57;7.00;;;-2.90;1.00;196.50;224877.00;;;;4973582;28;20230;-84
2021/12/03 04:01:12;;;;;;;9.10;6.30;;;-2.90;1.00;196.50;224877.00;;;;4970949;28;20273;-84
2021/12/03 04:03:45;;;;;;;8.50;5.97;;;-2.90;1.00;196.50;224877.00;;;;4954915;29;20195;-84
2021/12/03 04:06:20;;;;;;;11.30;6.30;;;-2.90;1.00;196.50;224877.00;;;;4955714;29;20198;-83
2021/12/03 04:08:49;;;;;;;9.77;6.33;;;-2.80;1.00;196.50;224877.00;;;;4954910;29;20202;-83
2021/12/03 04:11:24;;;;;;;10.57;6.00;;;-2.80;1.00;196.50;224877.00;;;;4953550;28;20210;-84
2021/12/03 04:13:51;;;;;;;8.60;6.00;;;-2.90;1.00;196.50;224877.00;;;;4954850;29;20228;-85
2021/12/03 04:16:22;;;;;;;10.90;6.00;;;-2.90;1.00;196.50;224877.00;;;;4955324;29;20320;-84
2021/12/03 04:18:53;;;;;;;9.17;5.93;;;-2.80;1.00;196.50;224877.00;;;;4954573;29;20230;-86
2021/12/03 04:21:26;;;;;;;12.10;6.77;;;-2.80;1.00;196.50;224877.00;;;;4954072;29;20215;-85
2021/12/03 04:23:54;;;;;;;8.60;5.73;;;-2.80;1.00;196.50;224877.00;;;;4970048;28;20654;-83
2021/12/03 04:26:21;;;;;;;8.90;6.03;;;-2.70;1.00;196.50;224877.00;;;;4954677;29;20685;-84
2021/12/03 04:28:50;;;;;;;12.53;6.70;;;-2.70;1.00;196.50;224877.00;;;;4970172;28;20195;-83
2021/12/03 04:31:20;;;;;;;10.53;5.70;;;-2.70;1.00;196.50;224877.00;;;;4953983;29;20198;-81
2021/12/03 04:33:49;;;;;;;9.13;6.50;;;-2.70;1.00;196.50;224877.00;;;;4953734;28;20688;-85
2021/12/03 04:36:18;;;;;;;7.67;5.63;;;-2.70;1.00;196.50;224877.00;;;;4970460;28;20210;-83
2021/12/03 04:38:49;;;;;;;10.10;6.00;;;-2.60;1.00;196.50;224877.00;;;;4970168;28;20191;-84
2021/12/03 04:41:16;;;;;;;9.30;6.33;;;-2.70;1.00;196.50;224877.00;;;;4953061;29;20239;-85
2021/12/03 04:43:44;;;;;;;10.30;6.33;;;-2.70;1.00;196.50;224877.00;;;;4953988;29;20722;-84
2021/12/03 04:46:12;;;;;;;9.43;6.27;;;-2.70;1.00;196.50;224877.00;;;;4938483;29;20573;-85
2021/12/03 04:48:39;;;;;;;9.73;5.47;;;-2.70;1.00;196.50;224877.00;;;;4934271;29;20212;-86
2021/12/03 04:51:06;;;;;;;8.33;6.00;;;-2.80;1.00;196.50;224877.00;;;;4935902;29;20577;-84
2021/12/03 04:53:36;;;;;;;7.73;5.53;;;-2.70;1.00;196.50;224877.00;;;;4950646;29;20192;-83
2021/12/03 04:56:07;;;;;;;11.57;6.40;;;-2.70;1.00;196.50;224877.00;;;;4919053;29;20258;-84
2021/12/03 04:58:34;;;;;;;8.33;5.97;;;-2.70;1.00;196.50;224877.00;;;;4932192;29;20207;-82
2021/12/03 05:01:02;;;;;;;8.17;5.63;;;-2.70;1.00;196.50;224877.00;;;;4934400;29;20239;-83
2021/12/03 05:03:29;;;;;;;12.03;5.63;;;-2.80;1.00;196.50;224877.00;;;;4934641;29;20191;-83
2021/12/03 05:06:08;;;;;;;8.23;5.60;;;-2.80;1.00;196.50;224877.00;;;;4941559;29;20217;-84
2021/12/03 05:08:37;;;;;;;7.53;5.30;;;-2.90;99.90;196.50;224877.00;;;;4962223;29;20194;-83
2021/12/03 05:11:08;;;;;;;7.40;4.93;;;-2.80;99.90;196.50;224877.00;;;;4960055;29;20195;-81
2021/12/03 05:13:37;;;;;;;8.33;5.47;;;-2.90;99.90;196.50;224877.00;;;;4972117;29;20218;-86
2021/12/03 05:16:05;;;;;;;7.03;4.70;;;-3.00;99.90;196.50;224877.00;;;;4942426;29;20237;-82
2021/12/03 05:18:35;;;;;;;7.03;4.97;;;-3.10;99.90;196.50;224877.00;;;;4952653;29;20202;-82
2021/12/03 05:21:04;;;;;;;12.47;5.73;;;-3.20;99.90;196.50;224877.00;;;;4935129;29;20278;-82
2021/12/03 05:23:32;;;;;;;9.97;6.03;;;-3.20;99.90;196.50;224877.00;;;;4936799;29;20297;-82
2021/12/03 05:26:01;;;;;;;8.50;5.27;;;-3.20;99.90;196.50;224877.00;;;;4944798;29;20656;-82
2021/12/03 05:28:29;;;;;;;7.00;4.97;;;-3.20;99.90;196.50;224877.00;;;;4963867;28;20226;-82
2021/12/03 05:30:58;;;;;;;6.60;4.93;;;-3.20;1.00;196.50;224877.00;;;;4963593;28;20653;-81
2021/12/03 05:33:31;;;;;;;7.80;5.10;;;-3.30;1.00;196.50;224877.00;;;;4949747;29;20727;-83
2021/12/03 05:35:58;;;;;;;10.63;5.67;;;-3.20;1.00;196.50;224877.00;;;;4952900;28;20209;-81
2021/12/03 05:38:26;;;;;;;8.87;4.93;;;-3.20;1.00;196.50;224877.00;;;;4942184;29;20261;-81
2021/12/03 05:41:02;;;;;;;6.50;4.90;;;-3.10;1.00;196.50;224877.00;;;;4950227;28;20611;-80
2021/12/03 05:43:32;;;;;;;7.40;5.03;;;-3.10;1.00;196.50;224877.00;;;;4972623;28;20285;-81
2021/12/03 05:46:00;;;;;;;6.87;4.57;;;-3.10;1.00;196.50;224877.00;;;;4957296;29;20557;-82
2021/12/03 05:48:27;;;;;;;10.60;5.63;;;-3.10;1.00;196.50;224877.00;;;;4956939;29;20254;-81
2021/12/03 05:50:56;;;;;;;9.43;5.17;;;-3.00;1.00;196.50;224877.00;;;;4957324;29;20673;-82
2021/12/03 05:53:23;;;;;;;8.30;4.87;;;-3.00;1.00;196.50;224877.00;;;;4941433;29;20666;-83
2021/12/03 05:55:50;;;;;;;8.47;5.43;;;-2.90;1.00;196.50;224877.00;;;;4973788;28;20210;-81
2021/12/03 05:58:18;;;;;;;7.83;4.60;;;-2.90;1.00;196.50;224877.00;;;;4958288;28;20218;-82
2021/12/03 06:00:48;;;;;;;5.77;3.90;;;-2.90;1.00;196.50;224877.00;;;;4970663;28;20221;-82
2021/12/03 06:03:18;;;;;;;9.43;4.40;;;-2.90;99.90;196.50;224877.00;;;;4953458;28;20230;-82
2021/12/03 06:05:45;;;;;;;5.90;4.30;;;-2.80;99.90;196.50;224877.00;;;;4957708;28;20210;-81
2021/12/03 06:08:13;;;;;;;9.60;4.67;;;-2.90;99.90;196.50;224877.00;;;;4957234;28;20220;-81
2021/12/03 06:10:40;;;;;;;8.93;4.67;;;-2.90;99.90;196.50;224877.00;;;;4957235;29;20238;-81
2021/12/03 06:13:07;;;;;;;8.97;4.30;;;-2.90;99.90;196.50;224877.00;;;;4955855;29;20214;-80
2021/12/03 06:15:34;;;;;;;6.90;3.73;;;-2.80;99.90;196.50;224877.00;;;;4975974;28;20303;-81
2021/12/03 06:18:05;;;;;;;6.97;3.80;;;-2.90;99.90;196.50;224877.00;;;;4975551;28;20274;-82
2021/12/03 06:20:33;;;;;;;7.47;3.90;;;-2.90;99.90;196.50;224877.00;;;;4966074;29;20199;-80
2021/12/03 06:23:02;;;;;;;8.10;3.77;;;-2.90;99.90;196.50;224877.00;;;;4969339;29;20242;-80
2021/12/03 06:25:39;;;;;;;5.53;3.50;;;-2.90;99.90;196.50;224877.00;;;;4975534;29;20219;-81
2021/12/03 06:28:07;;;;;;;6.77;3.30;;;-2.90;99.90;196.50;224877.00;;;;4993258;28;20194;-82
2021/12/03 06:30:34;;;;;;;6.00;3.60;;;-2.90;99.90;196.50;224877.00;;;;4976280;29;20210;-81
2021/12/03 06:33:03;;;;;;;5.80;3.70;;;-3.00;99.90;196.50;224877.00;;;;4963653;29;20186;-81
2021/12/03 06:35:34;;;;;;;4.70;3.63;;;-3.10;99.90;196.50;224877.00;;;;4958284;28;20212;-80
2021/12/03 06:38:02;;;;;;;5.70;3.63;;;-3.10;99.90;196.50;224877.00;;;;4955854;28;20203;-82
2021/12/03 06:40:30;;;;;;;5.17;3.33;;;-3.10;99.90;196.50;224877.00;;;;4964140;28;20192;-81
2021/12/03 06:43:00;;;;;;;12.53;3.83;;;-3.20;99.90;196.50;224877.00;;;;4955364;29;20201;-80
2021/12/03 06:45:28;;;;;;;8.43;3.47;;;-3.20;99.90;196.50;224877.00;;;;4946636;29;20669;-81
2021/12/03 06:48:09;;;;;;;7.87;3.90;;;-3.20;99.90;196.50;224877.00;;;;4979735;28;20231;-82
2021/12/03 06:50:40;;;;;;;10.57;3.90;;;-3.30;99.90;196.50;224877.00;;;;4960264;29;20199;-81
2021/12/03 06:53:13;;;;;;;5.53;3.27;;;-3.20;99.90;196.50;224877.00;;;;4948028;29;20623;-81
2021/12/03 06:55:48;;;;;;;6.40;3.60;;;-3.20;99.90;196.50;224877.00;;;;4950575;29;20202;-80
2021/12/03 06:58:19;;;;;;;5.53;3.87;;;-3.20;99.90;196.50;224877.00;;;;4932239;29;20212;-81
2021/12/03 07:00:51;;;;;;;6.37;3.50;;;-3.20;99.90;196.50;224877.00;;;;4958677;29;20205;-81
2021/12/03 07:03:19;;;;;;;6.17;3.03;;;-3.30;99.90;196.50;224877.00;;;;4958339;28;20196;-81
2021/12/03 07:05:52;;;;;;;4.90;3.10;;;-3.30;99.90;196.50;224877.00;;;;4942397;29;20216;-82
2021/12/03 07:08:22;;;;;;;4.37;2.60;;;-3.30;99.90;196.50;224877.00;;;;4982937;28;20194;-81
2021/12/03 07:10:51;;;;;;;7.30;2.70;;;-3.30;99.90;196.50;224877.00;;;;4956645;29;20231;-81
2021/12/03 07:13:26;;;;;;;5.40;2.53;;;-3.40;99.90;196.50;224877.00;;;;4952621;29;20197;-81
2021/12/03 07:16:21;;;;;;;5.80;3.03;;;-3.40;99.90;196.50;224877.00;;;;4954086;29;20258;-81
2021/12/03 07:18:52;;;;;;;5.40;3.10;;;-3.50;99.90;196.50;224877.00;;;;4953703;29;20209;-82
2021/12/03 07:21:22;;;;;;;6.33;3.23;;;-3.60;99.90;196.50;224877.00;;;;4935329;29;20658;-81
2021/12/03 07:23:54;;;;;;;4.87;2.90;;;-3.60;99.90;196.50;224877.00;;;;4930306;29;20205;-80
2021/12/03 07:26:25;;;;;;;5.23;3.30;;;-3.60;99.90;196.50;224877.00;;;;4940821;29;20306;-81
2021/12/03 07:28:54;;;;;;;5.10;3.07;;;-3.60;99.90;196.50;224877.00;;;;4938232;29;20199;-80
2021/12/03 07:31:22;;;;;;;6.97;2.90;;;-3.70;99.90;196.50;224877.00;;;;4957899;28;20225;-80
2021/12/03 07:33:51;;;;;;;5.93;2.90;;;-3.70;99.90;196.50;224877.00;;;;4956001;28;20234;-81
2021/12/03 07:36:19;;;;;;;3.10;2.43;;;-3.70;99.90;196.50;224877.00;;;;4956810;29;20201;-81
2021/12/03 07:38:49;;;;;;;5.27;2.73;;;-3.70;1.40;196.50;224877.00;;;;4972103;28;20224;-83
2021/12/03 07:41:17;;;;;;;7.63;3.00;;;-3.60;1.00;196.50;224877.00;;;;4947475;29;20250;-81
2021/12/03 07:43:45;;;;;;;7.93;3.10;;;-3.50;1.00;196.50;224877.00;;;;4920738;29;20675;-81
2021/12/03 07:46:15;;;;;;;4.93;3.27;;;-3.40;1.00;196.50;224877.00;;;;4952096;28;20230;-80
2021/12/03 07:48:46;;;;;;;7.23;3.77;;;-3.30;1.00;196.50;224877.00;;;;4953126;29;20282;-82
2021/12/03 07:51:18;;;;;;;4.47;2.77;;;-3.30;1.00;196.50;224877.00;;;;4936921;29;20207;-81
2021/12/03 07:53:50;;;;;;;2.30;2.10;;;-3.30;1.00;196.50;224877.00;;;;4937464;29;20250;-81
2021/12/03 07:56:23;;;;;;;5.37;3.00;;;-3.30;99.90;196.50;224877.00;;;;4937102;29;20638;-81
2021/12/03 07:58:51;;;;;;;5.93;3.93;;;-3.30;99.90;196.50;224877.00;;;;4937422;29;20209;-81
2021/12/03 08:01:21;;;;;;;7.10;5.07;;;-3.20;99.90;196.50;224877.00;;;;4952934;29;20229;-81
2021/12/03 08:03:49;;;;;;;5.93;3.97;;;-3.20;99.90;196.50;224877.00;;;;4921100;29;20247;-80
2021/12/03 08:06:24;;;;;;;7.77;3.53;;;-3.10;99.90;196.50;224877.00;;;;4920875;29;20207;-80
2021/12/03 08:08:52;;;;;;;6.17;3.73;;;-3.00;99.90;196.50;224877.00;;;;4952482;29;20286;-81
2021/12/03 08:11:19;;;;;;;5.40;3.00;;;-2.80;99.90;196.50;224877.00;;;;4936141;29;20200;-81
2021/12/03 08:13:53;;;;;;;4.47;2.90;;;-2.70;99.90;196.50;224877.00;;;;4951548;29;20206;-81
2021/12/03 08:16:20;;;;;;;6.17;3.43;;;-2.50;99.90;196.50;224877.00;;;;4935719;29;20202;-80
2021/12/03 08:18:48;;;;;;;3.50;2.90;;;-2.30;99.90;196.50;224877.00;;;;4935929;29;20298;-81
2021/12/03 08:21:16;;;;;;;8.03;2.27;;;-2.00;99.90;196.50;224877.00;;;;4935786;29;20212;-83
2021/12/03 08:23:44;;;;;;;6.90;2.00;;;-1.50;99.90;196.50;224877.00;;;;4935515;29;20196;-80
2021/12/03 08:26:11;;;;;;;4.60;2.33;;;-1.10;1.00;196.50;224877.00;;;;4943100;29;20200;-83
2021/12/03 08:28:41;;;;;;;5.07;2.23;;;-0.90;1.00;196.50;224877.00;;;;4936223;29;20210;-83
2021/12/03 08:31:14;;;;;;;4.20;1.80;;;-0.90;99.90;196.50;224877.00;;;;4935478;29;20204;-80
2021/12/03 08:33:47;;;;;;;5.23;1.70;;;-1.00;99.90;196.50;224877.00;;;;4951541;29;20199;-83
2021/12/03 08:36:16;;;;;;;2.23;1.67;;;-1.00;99.90;196.50;224877.00;;;;4935654;29;20200;-82
2021/12/03 08:38:48;;;;;;;4.10;2.03;;;-1.10;99.90;196.50;224877.00;;;;4936446;29;20204;-82
2021/12/03 08:41:21;;;;;;;2.17;1.77;;;-1.10;99.90;196.50;224877.00;;;;4952397;28;20255;-80
2021/12/03 08:43:50;;;;;;;3.53;2.00;;;-1.30;99.90;196.50;224877.00;;;;4942817;29;20196;-81
2021/12/03 08:46:32;;;;;;;3.10;1.80;;;-1.30;1.00;196.50;224877.00;;;;4920376;29;20712;-84
2021/12/03 08:49:17;;;;;;;3.87;1.97;;;-1.30;99.90;196.50;224877.00;;;;4939116;29;20192;-81
2021/12/03 08:57:00;;;;;;;5.90;1.93;;;-0.40;99.90;196.50;224877.00;;;;4935696;29;20298;-84
2021/12/03 08:59:33;;;;;;;2.00;1.50;;;0.00;99.90;196.50;224877.00;;;;4937885;29;20207;-86
2021/12/03 09:02:05;;;;;;;2.00;1.80;;;0.30;13.90;196.50;224877.00;;;;4945194;29;20211;-84
2021/12/03 09:04:36;;;;;;;1.97;1.60;;;0.60;1.00;196.50;224877.00;;;;4974439;28;20273;-83
2021/12/03 09:07:05;;;;;;;1.90;1.30;;;0.80;1.00;196.50;224877.00;;;;4958542;29;20217;-85
2021/12/03 09:09:35;;;;;;;4.23;1.70;;;1.20;1.00;196.50;224877.00;;;;4974991;28;20198;-86
2021/12/03 09:12:05;;;;;;;4.43;2.00;;;1.50;99.90;196.50;224877.00;;;;4975110;28;20203;-84
2021/12/03 09:14:52;;;;;;;4.80;1.27;;;1.80;99.90;196.50;224877.00;;;;4959285;29;20198;-82
2021/12/03 09:23:03;;;;;;;7.03;1.70;;;2.20;99.90;196.50;224877.00;;;;4958095;29;20222;-82
2021/12/03 09:50:11;;;;;;;3.63;1.50;;;2.80;1.00;196.50;224877.00;;;;4959039;29;20200;-81
2021/12/03 09:53:13;;;;;;;4.53;1.60;;;2.50;1.00;196.50;224877.00;;;;4959734;29;20202;-84
2021/12/03 09:55:50;;;;;;;2.47;1.50;;;2.40;1.00;196.50;224877.00;;;;4974343;28;20195;-82
2021/12/03 10:01:34;;;;;;;4.93;1.80;;;2.40;1.00;196.50;224877.00;;;;4957280;29;20298;-84
2021/12/03 10:10:49;;;;;;;2.73;1.60;;;2.70;99.90;196.50;224877.00;;;;4958826;28;20190;-89
2021/12/03 10:19:35;;;;;;;3.40;1.80;;;3.80;1.00;196.50;224877.00;;;;4958597;29;20211;-89
2021/12/03 10:23:11;;;;;;;3.53;1.70;;;4.10;47.80;196.50;224877.00;;;;4973684;28;20227;-86
2021/12/03 10:38:31;;;;;;;1.53;1.00;;;5.90;99.90;196.50;224877.00;;;;4960219;29;20198;-87
2021/12/03 10:44:31;;;;;;;3.05;1.20;;;7.00;1.00;196.50;224877.00;;;;4924869;29;20202;-87
2021/12/03 10:50:46;;;;;;;2.63;1.30;;;7.50;1.00;196.50;224877.00;;;;4945700;29;20195;-90
2021/12/03 10:53:41;;;;;;;1.93;1.13;;;7.40;1.00;196.50;224877.00;;;;4940283;29;20199;-86
2021/12/03 11:06:13;;;;;;;2.97;1.37;;;6.80;1.00;196.50;224877.00;;;;4941336;29;20223;-88
2021/12/03 20:36:50;;;;;;;0.93;0.80;;;-1.10;1.00;196.50;224877.00;;;;4988349;28;20230;-81
2021/12/03 23:15:37;;;;;;;0.43;0.43;;;0.20;1.00;196.50;224877.00;;;;5050978;22;20225;-83
2021/12/03 23:18:10;;;;;;;0.60;0.60;;;0.30;1.00;196.50;224877.00;;;;5010617;28;20201;-83
2021/12/03 23:21:12;;;;;;;0.47;0.47;;;0.30;7.90;196.50;224877.00;;;;5000731;28;20205;-81
2021/12/03 23:26:20;;;;;;;0.33;0.33;;;0.40;59.40;196.50;224877.00;;;;5077445;22;20221;-82
2021/12/03 23:32:31;;;;;;;2.03;0.50;;;0.40;99.90;196.50;224877.00;;;;5189305;22;20301;-85
2021/12/03 23:42:57;;;;;;;1.17;0.70;;;0.30;99.90;196.50;224877.00;;;;5046180;22;20237;-85
2021/12/03 23:45:24;;;;;;;1.20;0.80;;;0.20;99.90;196.50;224877.00;;;;4995700;28;20668;-88
2021/12/03 23:47:52;;;;;;;1.47;1.07;;;0.10;99.90;196.50;224877.00;;;;4962546;28;20202;-87
2021/12/03 23:50:19;;;;;;;1.93;1.30;;;0.10;99.90;196.50;224877.00;;;;4977458;28;20244;-87
2021/12/03 23:52:48;;;;;;;1.50;1.07;;;0.00;99.90;196.50;224877.00;;;;4978836;28;20553;-87
2021/12/03 23:55:15;;;;;;;1.60;1.30;;;-0.10;99.90;196.50;224877.00;;;;4978743;28;20205;-88
2021/12/03 23:57:45;;;;;;;2.30;1.30;;;-0.20;99.90;196.50;224877.00;;;;4978271;28;20236;-88
